Terminal Aerodrome Forecast
Issued by NWS Austin/San Antonio, TX

Home | Current Version | Previous Version | Text Only | Print | Product List | Glossary On
Versions: 1 2 3 4 5 6 7 8 9 10 11 12 13 14 15 16 17 18 19 20 21 22 23 24 25 26 27 28 29 30 31
633
FTUS44 KEWX 162340
TAFAUS
TAF
KAUS 162340Z 1700/1806 06007KT P6SM VCSH OVC035
     FM170100 03004KT P6SM VCSH OVC022
     FM170600 02006KT 5SM BR VCSH OVC012
     FM170900 01011KT 4SM BR VCSH OVC008
     FM171300 01013KT 5SM BR VCSH OVC010
     FM172000 01010KT 6SM BR OVC015=

USA.gov is the U.S. government's official web portal to all federal, state and local government web resources and services.